createdAt,value
2023-01-17T00:02:14.503Z,2.10
2023-01-17T00:04:41.503Z,2.22
2023-01-17T00:07:11.220Z,2.15
2023-01-17T00:09:37.831Z,2.10
2023-01-17T00:12:06.880Z,1.83
2023-01-17T00:14:34.069Z,2.22
2023-01-17T00:17:00.724Z,2.70
2023-01-17T00:19:27.918Z,2.28
2023-01-17T00:21:54.852Z,2.28
2023-01-17T00:24:21.519Z,1.98
2023-01-17T00:26:48.223Z,2.55
2023-01-17T00:29:14.919Z,2.30
2023-01-17T00:31:41.600Z,2.25
2023-01-17T00:34:08.272Z,2.25
2023-01-17T00:36:34.957Z,3.33
2023-01-17T00:39:01.808Z,2.75
2023-01-17T00:41:28.843Z,2.70
2023-01-17T00:43:55.557Z,2.40
2023-01-17T00:46:22.370Z,2.40
2023-01-17T00:48:49.096Z,2.50
2023-01-17T00:51:16.431Z,2.42
2023-01-17T00:53:43.170Z,2.10
2023-01-17T00:56:09.844Z,2.47
2023-01-17T00:58:36.559Z,2.00
2023-01-17T01:01:06.613Z,2.03
2023-01-17T01:03:33.389Z,2.60
2023-01-17T01:06:03.721Z,1.90
2023-01-17T01:08:30.447Z,2.28
2023-01-17T01:10:57.127Z,2.30
2023-01-17T01:13:26.066Z,2.22
2023-01-17T01:15:52.763Z,2.33
2023-01-17T01:18:19.435Z,2.25
2023-01-17T01:20:46.141Z,2.47
2023-01-17T01:23:12.790Z,2.25
2023-01-17T01:25:39.503Z,2.10
2023-01-17T01:28:10.244Z,2.50
2023-01-17T01:30:38.248Z,2.20
2023-01-17T01:33:12.588Z,2.15
2023-01-17T01:35:39.244Z,2.08
2023-01-17T01:38:06.125Z,2.30
2023-01-17T01:40:32.841Z,2.25
2023-01-17T01:43:00.353Z,3.00
2023-01-17T01:45:32.470Z,2.60
2023-01-17T01:48:19.190Z,2.20
2023-01-17T01:50:48.668Z,2.35
2023-01-17T01:53:17.874Z,2.25
2023-01-17T01:55:47.762Z,2.20
2023-01-17T01:58:30.220Z,2.30
2023-01-17T02:00:57.074Z,2.35
2023-01-17T02:03:28.010Z,2.50
2023-01-17T02:05:55.107Z,2.25
2023-01-17T02:08:23.882Z,2.40
2023-01-17T02:10:51.164Z,2.50
2023-01-17T02:13:20.289Z,2.35
2023-01-17T02:15:59.890Z,2.28
2023-01-17T02:18:35.437Z,2.80
2023-01-17T02:21:08.221Z,2.38
2023-01-17T02:23:59.818Z,2.50
2023-01-17T02:26:49.882Z,2.53
2023-01-17T02:29:45.228Z,2.35
2023-01-17T02:32:20.835Z,2.45
2023-01-17T02:34:56.288Z,2.13
2023-01-17T02:37:42.216Z,2.45
2023-01-17T02:40:28.256Z,2.40
2023-01-17T02:43:00.962Z,1.95
2023-01-17T02:45:27.788Z,3.15
2023-01-17T02:47:54.526Z,2.50
2023-01-17T02:50:41.382Z,2.65
2023-01-17T02:53:49.926Z,2.38
2023-01-17T02:56:22.937Z,2.40
2023-01-17T02:58:55.417Z,2.40
2023-01-17T03:01:34.315Z,2.58
2023-01-17T03:04:11.925Z,2.65
2023-01-17T03:06:41.332Z,2.20
2023-01-17T03:09:09.451Z,2.60
2023-01-17T03:11:36.753Z,2.60
2023-01-17T03:14:03.480Z,2.47
2023-01-17T03:16:32.870Z,2.30
2023-01-17T03:18:59.720Z,2.80
2023-01-17T03:21:26.416Z,2.55
2023-01-17T03:23:53.085Z,2.72
2023-01-17T03:26:19.749Z,2.55
2023-01-17T03:28:46.494Z,2.75
2023-01-17T03:31:17.696Z,2.50
2023-01-17T03:33:44.446Z,2.83
2023-01-17T03:36:11.353Z,2.38
2023-01-17T03:38:38.215Z,2.58
2023-01-17T03:41:05.249Z,2.58
2023-01-17T03:43:31.916Z,2.67
2023-01-17T03:46:04.215Z,2.33
2023-01-17T03:48:31.351Z,2.65
2023-01-17T03:50:58.263Z,2.60
2023-01-17T03:53:25.093Z,2.80
2023-01-17T03:55:52.151Z,2.60
2023-01-17T03:58:21.199Z,2.72
2023-01-17T04:00:47.956Z,2.80
2023-01-17T04:03:16.967Z,2.92
2023-01-17T04:05:43.680Z,2.33
2023-01-17T04:08:10.399Z,2.22
2023-01-17T04:10:37.080Z,2.70
2023-01-17T04:13:03.823Z,2.20
2023-01-17T04:15:30.715Z,2.33
2023-01-17T04:17:58.050Z,2.30
2023-01-17T04:20:39.234Z,1.88
2023-01-17T04:23:06.955Z,1.70
2023-01-17T04:25:34.257Z,1.80
2023-01-17T04:28:02.356Z,1.52
2023-01-17T04:30:29.981Z,1.70
2023-01-17T04:32:57.091Z,1.48
2023-01-17T04:35:24.616Z,1.45
2023-01-17T04:37:52.625Z,1.20
2023-01-17T04:40:19.490Z,1.40
2023-01-17T04:42:46.397Z,1.17
2023-01-17T04:45:13.347Z,1.40
2023-01-17T04:47:40.303Z,1.00
2023-01-17T04:50:08.536Z,1.08
2023-01-17T04:52:35.231Z,1.30
2023-01-17T04:55:02.112Z,1.00
2023-01-17T04:57:28.811Z,1.10
2023-01-17T04:59:55.558Z,1.13
2023-01-17T05:02:22.501Z,1.10
2023-01-17T05:04:49.315Z,3.08
2023-01-17T05:07:15.990Z,1.48
2023-01-17T05:09:42.667Z,1.30
2023-01-17T05:12:09.927Z,1.20
2023-01-17T05:14:36.595Z,0.90
2023-01-17T05:17:03.285Z,1.10
2023-01-17T05:19:29.967Z,1.40
2023-01-17T05:21:56.592Z,1.40
2023-01-17T05:24:23.247Z,1.15
2023-01-17T05:26:50.353Z,1.45
2023-01-17T05:29:17.103Z,1.20
2023-01-17T05:31:43.849Z,1.10
2023-01-17T05:34:10.615Z,1.40
2023-01-17T05:36:37.476Z,1.45
2023-01-17T05:39:04.125Z,1.13
2023-01-17T05:41:30.832Z,1.30
2023-01-17T05:43:57.499Z,1.55
2023-01-17T05:46:24.208Z,1.10
2023-01-17T05:48:50.934Z,1.52
2023-01-17T05:51:17.766Z,1.23
2023-01-17T05:53:44.521Z,1.23
2023-01-17T05:56:11.188Z,1.33
2023-01-17T05:58:37.899Z,1.40
2023-01-17T06:01:04.630Z,1.40
2023-01-17T06:03:31.682Z,1.60
2023-01-17T06:05:58.353Z,1.08
2023-01-17T06:08:25.009Z,1.30
2023-01-17T06:10:51.682Z,1.60
2023-01-17T06:13:18.913Z,1.38
2023-01-17T06:15:45.633Z,1.30
2023-01-17T06:18:14.641Z,1.58
2023-01-17T06:20:42.539Z,1.67
2023-01-17T06:23:11.703Z,2.38
2023-01-17T06:25:43.830Z,1.92
2023-01-17T06:28:11.660Z,2.42
2023-01-17T06:30:38.454Z,2.30
2023-01-17T06:33:05.820Z,2.13
2023-01-17T06:35:33.724Z,2.40
2023-01-17T06:38:00.531Z,2.20
2023-01-17T06:40:28.678Z,1.92
2023-01-17T06:43:02.919Z,2.30
2023-01-17T06:45:31.741Z,2.20
2023-01-17T06:48:00.712Z,2.47
2023-01-17T06:50:27.697Z,2.80
2023-01-17T06:53:00.578Z,2.53
2023-01-17T06:55:28.890Z,2.35
2023-01-17T06:57:59.126Z,2.78
2023-01-17T07:00:27.345Z,2.20
2023-01-17T07:02:54.221Z,2.90
2023-01-17T07:05:21.531Z,2.55
2023-01-17T07:07:48.482Z,2.70
2023-01-17T07:10:15.768Z,2.35
2023-01-17T07:12:42.743Z,3.03
2023-01-17T07:15:10.410Z,2.83
2023-01-17T07:17:37.417Z,2.60
2023-01-17T07:20:04.415Z,2.63
2023-01-17T07:22:31.076Z,2.88
2023-01-17T07:24:57.755Z,2.85
2023-01-17T07:27:28.210Z,2.83
2023-01-17T07:29:54.877Z,2.53
2023-01-17T07:32:21.734Z,2.60
2023-01-17T07:34:48.404Z,2.70
2023-01-17T07:37:15.481Z,2.80
2023-01-17T07:39:42.424Z,2.88
2023-01-17T07:42:09.180Z,2.42
2023-01-17T07:44:36.147Z,2.67
2023-01-17T07:47:02.878Z,2.50
2023-01-17T07:49:29.523Z,2.70
2023-01-17T07:51:56.178Z,2.78
2023-01-17T07:54:22.901Z,2.72
2023-01-17T07:56:49.578Z,3.15
2023-01-17T07:59:16.322Z,3.15
2023-01-17T08:01:43.152Z,2.65
2023-01-17T08:04:10.232Z,2.53
2023-01-17T08:06:39.229Z,2.25
2023-01-17T08:09:06.001Z,2.55
2023-01-17T08:11:32.723Z,3.28
2023-01-17T08:13:59.613Z,2.50
2023-01-17T08:16:27.398Z,2.30
2023-01-17T08:18:55.945Z,2.13
2023-01-17T08:21:23.209Z,2.08
2023-01-17T08:23:51.250Z,2.20
2023-01-17T08:26:19.526Z,1.77
2023-01-17T08:28:46.238Z,2.08
2023-01-17T08:31:12.928Z,1.80
2023-01-17T08:33:39.661Z,2.05
2023-01-17T08:36:07.981Z,2.00
2023-01-17T08:38:35.143Z,1.98
2023-01-17T08:41:01.891Z,1.80
2023-01-17T08:43:28.589Z,2.00
2023-01-17T08:45:55.359Z,2.30
2023-01-17T08:48:25.401Z,2.28
2023-01-17T08:50:52.087Z,4.78
2023-01-17T08:53:18.826Z,3.40
2023-01-17T08:55:45.596Z,2.80
2023-01-17T08:58:14.910Z,2.50
2023-01-17T09:00:41.688Z,2.50
2023-01-17T09:03:10.839Z,2.22
2023-01-17T09:05:39.636Z,1.80
2023-01-17T09:08:06.372Z,1.90
2023-01-17T09:10:33.108Z,2.17
2023-01-17T09:12:59.822Z,1.77
2023-01-17T09:15:29.046Z,1.88
2023-01-17T09:17:59.735Z,1.52
2023-01-17T09:20:26.500Z,1.60
2023-01-17T09:22:53.190Z,1.70
2023-01-17T09:25:19.929Z,1.50
2023-01-17T09:27:46.887Z,1.10
2023-01-17T09:30:14.070Z,1.40
2023-01-17T09:32:40.834Z,1.60
2023-01-17T09:35:07.984Z,0.93
2023-01-17T09:37:34.685Z,0.95
2023-01-17T09:40:01.366Z,1.08
2023-01-17T09:42:35.750Z,1.00
2023-01-17T09:45:02.847Z,1.00
2023-01-17T09:47:32.419Z,0.70
2023-01-17T09:50:17.175Z,0.80
2023-01-17T09:52:44.592Z,0.70
2023-01-17T09:55:18.756Z,0.73
2023-01-17T09:57:51.093Z,0.80
2023-01-17T10:00:34.329Z,0.90
2023-01-17T10:03:18.612Z,0.80
2023-01-17T10:05:54.150Z,0.85
2023-01-17T10:08:27.108Z,1.00
2023-01-17T10:11:31.464Z,1.10
2023-01-17T10:14:13.480Z,1.02
2023-01-17T10:16:40.200Z,0.77
2023-01-17T10:19:28.295Z,0.80
2023-01-17T10:22:13.949Z,0.85
2023-01-17T10:25:00.350Z,0.70
2023-01-17T10:27:38.153Z,0.70
2023-01-17T10:30:22.979Z,0.60
2023-01-17T10:32:49.961Z,0.40
2023-01-17T10:35:25.587Z,0.73
2023-01-17T10:40:27.122Z,0.80
2023-01-17T10:43:25.322Z,0.80
2023-01-17T10:45:55.189Z,1.00
2023-01-17T10:48:33.982Z,0.90
2023-01-17T10:51:26.955Z,0.82
2023-01-17T10:54:05.736Z,1.00
2023-01-17T10:56:34.311Z,1.20
2023-01-17T10:59:30.581Z,0.98
2023-01-17T11:01:58.334Z,0.68
2023-01-17T11:04:37.120Z,0.90
2023-01-17T11:07:24.315Z,0.80
2023-01-17T11:09:56.335Z,0.80
2023-01-17T11:12:30.007Z,0.95
2023-01-17T11:15:02.826Z,1.20
2023-01-17T11:17:30.779Z,1.40
2023-01-17T11:20:45.929Z,2.28
2023-01-17T11:23:20.612Z,1.17
2023-01-17T11:25:57.162Z,1.10
2023-01-17T11:28:29.055Z,1.17
2023-01-17T11:30:58.172Z,1.08
2023-01-17T11:33:44.819Z,0.93
2023-01-17T11:36:27.488Z,1.10
2023-01-17T11:39:17.431Z,1.05
2023-01-17T11:41:45.590Z,1.30
2023-01-17T11:44:25.465Z,1.10
2023-01-17T11:47:17.617Z,1.23
2023-01-17T11:49:47.165Z,1.25
2023-01-17T11:52:33.342Z,1.20
2023-01-17T11:55:00.333Z,1.10
2023-01-17T11:57:30.976Z,1.30
2023-01-17T12:00:24.300Z,1.30
2023-01-17T12:03:08.939Z,1.45
2023-01-17T12:06:12.865Z,1.75
2023-01-17T12:09:11.884Z,1.70
2023-01-17T12:11:58.833Z,1.92
2023-01-17T12:14:36.224Z,2.05
2023-01-17T12:17:26.325Z,2.70
2023-01-17T12:19:59.602Z,2.03
2023-01-17T12:22:46.758Z,2.55
2023-01-17T12:25:40.555Z,2.60
2023-01-17T12:28:27.817Z,2.65
2023-01-17T12:30:57.355Z,2.28
2023-01-17T12:33:50.685Z,2.70
2023-01-17T12:36:43.385Z,2.10
2023-01-17T12:39:11.213Z,1.92
2023-01-17T12:41:59.964Z,2.35
2023-01-17T12:44:48.097Z,1.63
2023-01-17T12:47:15.860Z,1.67
2023-01-17T12:49:45.708Z,1.80
2023-01-17T12:52:24.390Z,1.70
2023-01-17T12:54:58.162Z,1.25
2023-01-17T12:57:37.345Z,1.67
2023-01-17T13:00:14.541Z,1.55
2023-01-17T13:02:59.376Z,1.73
2023-01-17T13:05:41.707Z,1.35
2023-01-17T13:08:32.850Z,1.52
2023-01-17T13:11:22.989Z,1.20
2023-01-17T13:13:50.313Z,1.15
2023-01-17T13:16:29.041Z,1.55
2023-01-17T13:19:01.778Z,1.77
2023-01-17T13:21:34.052Z,1.63
2023-01-17T13:24:00.732Z,1.33
2023-01-17T13:26:48.698Z,1.48
2023-01-17T13:29:40.065Z,1.25
2023-01-17T13:32:15.671Z,1.40
2023-01-17T13:37:43.140Z,1.60
2023-01-17T13:40:49.534Z,1.40
2023-01-17T13:43:26.052Z,1.58
2023-01-17T13:45:59.137Z,1.90
2023-01-17T13:48:29.081Z,1.50
2023-01-17T13:51:03.848Z,1.98
2023-01-17T13:53:36.949Z,1.87
2023-01-17T13:56:18.745Z,1.80
2023-01-17T13:58:45.446Z,1.90
2023-01-17T14:01:12.905Z,2.00
2023-01-17T14:03:51.916Z,2.08
2023-01-17T14:06:59.333Z,2.15
2023-01-17T14:09:52.893Z,2.17
2023-01-17T14:12:19.551Z,1.90
2023-01-17T14:14:52.168Z,1.77
2023-01-17T14:17:18.948Z,1.90
2023-01-17T14:19:47.473Z,1.98
2023-01-17T14:22:20.533Z,1.73
2023-01-17T14:25:02.503Z,2.10
2023-01-17T14:27:32.832Z,2.95
2023-01-17T14:30:01.696Z,2.63
2023-01-17T14:32:34.536Z,2.90
2023-01-17T14:35:03.639Z,2.92
2023-01-17T14:37:37.816Z,2.45
2023-01-17T14:40:23.003Z,2.15
2023-01-17T14:43:05.593Z,2.60
2023-01-17T14:45:34.787Z,2.95
2023-01-17T14:48:05.004Z,2.22
2023-01-17T14:50:40.584Z,2.97
2023-01-17T14:53:11.022Z,2.30
2023-01-17T14:55:47.724Z,2.53
2023-01-17T14:58:17.984Z,2.25
2023-01-17T15:00:44.726Z,2.30
2023-01-17T15:03:14.806Z,2.78
2023-01-17T15:05:44.298Z,3.42
2023-01-17T15:08:17.339Z,2.53
2023-01-17T15:11:07.724Z,3.40
2023-01-17T15:13:46.454Z,2.85
2023-01-17T15:16:28.747Z,2.03
2023-01-17T15:18:57.054Z,2.85
2023-01-17T15:21:28.038Z,2.60
2023-01-17T15:23:57.691Z,3.20
2023-01-17T15:26:26.818Z,3.47
2023-01-17T15:29:01.764Z,3.35
2023-01-17T15:31:48.400Z,2.90
2023-01-17T15:34:39.709Z,3.42
2023-01-17T15:37:25.220Z,2.45
2023-01-17T15:39:52.273Z,3.33
2023-01-17T15:42:28.421Z,3.60
2023-01-17T15:45:01.808Z,3.53
2023-01-17T15:47:33.382Z,3.92
2023-01-17T15:50:02.533Z,3.85
2023-01-17T15:52:32.324Z,3.60
2023-01-17T15:55:13.063Z,3.33
2023-01-17T15:57:40.374Z,3.70
2023-01-17T16:00:13.892Z,3.70
2023-01-17T16:02:51.387Z,3.38
2023-01-17T16:05:24.397Z,3.60
2023-01-17T16:07:56.580Z,3.50
2023-01-17T16:10:31.825Z,3.90
2023-01-17T16:13:06.379Z,4.13
2023-01-17T16:15:33.547Z,3.58
2023-01-17T16:18:06.023Z,4.75
2023-01-17T16:20:48.529Z,4.28
2023-01-17T16:23:15.480Z,4.57
2023-01-17T16:25:43.348Z,4.80
2023-01-17T16:28:10.427Z,4.20
2023-01-17T16:30:37.704Z,4.38
2023-01-17T16:33:04.892Z,4.82
2023-01-17T16:35:34.134Z,4.68
2023-01-17T16:38:04.125Z,4.80
2023-01-17T16:40:33.548Z,5.85
2023-01-17T16:43:03.372Z,5.32
2023-01-17T16:45:30.321Z,4.93
2023-01-17T16:47:57.051Z,6.13
2023-01-17T16:50:24.996Z,5.70
2023-01-17T16:52:55.015Z,4.65
2023-01-17T16:55:24.558Z,5.95
2023-01-17T16:57:56.742Z,4.65
2023-01-17T17:00:23.883Z,5.95
2023-01-17T17:02:51.551Z,6.22
2023-01-17T17:05:18.720Z,5.60
2023-01-17T17:07:45.910Z,4.90
2023-01-17T17:10:15.454Z,6.95
2023-01-17T17:12:43.110Z,7.05
2023-01-17T17:15:14.291Z,7.22
2023-01-17T17:17:42.888Z,7.40
2023-01-17T17:20:12.563Z,6.57
2023-01-17T17:22:40.666Z,6.63
2023-01-17T17:25:07.669Z,6.75
2023-01-17T17:27:41.094Z,7.03
2023-01-17T17:30:12.092Z,7.28
2023-01-17T17:32:38.829Z,7.53
2023-01-17T17:35:06.184Z,7.55
2023-01-17T17:37:36.888Z,8.55
2023-01-17T17:40:06.363Z,8.40
2023-01-17T17:42:35.925Z,9.05
2023-01-17T17:45:02.963Z,8.25
2023-01-17T17:47:29.659Z,8.48
2023-01-17T17:49:56.512Z,9.85
2023-01-17T17:52:23.220Z,9.93
2023-01-17T17:54:52.721Z,10.45
2023-01-17T17:57:19.508Z,10.57
2023-01-17T17:59:47.377Z,10.88
2023-01-17T18:02:14.094Z,9.45
2023-01-17T18:04:40.833Z,9.50
2023-01-17T18:07:07.572Z,10.93
2023-01-17T18:09:34.279Z,9.65
2023-01-17T18:12:01.155Z,9.23
2023-01-17T18:14:27.921Z,8.00
2023-01-17T18:17:01.679Z,8.43
2023-01-17T18:19:28.661Z,8.68
2023-01-17T18:21:55.341Z,9.25
2023-01-17T18:24:24.185Z,8.63
2023-01-17T18:26:53.078Z,9.73
2023-01-17T18:29:24.040Z,9.02
2023-01-17T18:31:53.935Z,6.35
2023-01-17T18:34:23.837Z,6.75
2023-01-17T18:36:52.128Z,8.95
2023-01-17T18:39:19.155Z,8.00
2023-01-17T18:41:46.214Z,8.38
2023-01-17T18:44:13.204Z,8.75
2023-01-17T18:46:40.236Z,9.00
2023-01-17T18:49:07.222Z,8.32
2023-01-17T18:51:34.390Z,7.57
2023-01-17T18:54:01.741Z,7.30
2023-01-17T18:56:30.017Z,7.93
2023-01-17T18:58:57.113Z,8.75
2023-01-17T19:01:26.854Z,8.75
2023-01-17T19:03:55.946Z,9.63
2023-01-17T19:06:29.184Z,10.43
2023-01-17T19:08:56.367Z,9.80
2023-01-17T19:11:24.186Z,10.35
2023-01-17T19:13:51.330Z,11.32
2023-01-17T19:16:26.858Z,11.13
2023-01-17T19:21:22.921Z,12.27
2023-01-17T19:23:50.191Z,11.85
2023-01-17T19:26:18.097Z,12.13
2023-01-17T19:28:46.500Z,11.98
2023-01-17T19:31:16.134Z,11.30
2023-01-17T19:33:44.628Z,11.23
2023-01-17T19:36:17.905Z,10.88
2023-01-17T19:38:58.608Z,12.65
2023-01-17T19:41:27.001Z,15.40
2023-01-17T19:43:58.808Z,17.25
2023-01-17T19:46:25.872Z,15.82
2023-01-17T19:48:53.562Z,13.90
2023-01-17T19:51:21.025Z,12.98
2023-01-17T19:53:48.027Z,12.75
2023-01-17T19:56:17.549Z,12.00
2023-01-17T19:58:45.337Z,12.00
2023-01-17T20:01:17.920Z,12.20
2023-01-17T20:03:46.256Z,12.38
2023-01-17T20:06:17.335Z,12.07
2023-01-17T20:08:44.046Z,11.68
2023-01-17T20:11:13.978Z,13.63
2023-01-17T20:13:41.932Z,13.40
2023-01-17T20:16:10.449Z,14.13
2023-01-17T20:18:37.804Z,13.35
2023-01-17T20:21:08.954Z,13.70
2023-01-17T20:23:37.804Z,12.95
2023-01-17T20:26:05.647Z,12.93
2023-01-17T20:28:34.545Z,12.10
2023-01-17T20:31:06.666Z,12.18
2023-01-17T20:33:33.738Z,12.90
2023-01-17T20:36:10.051Z,12.52
2023-01-17T20:38:37.208Z,12.35
2023-01-17T20:41:03.836Z,12.80
2023-01-17T20:43:30.547Z,12.80
2023-01-17T20:45:57.316Z,13.43
2023-01-17T20:48:24.092Z,13.68
2023-01-17T20:50:50.828Z,13.55
2023-01-17T20:53:17.608Z,13.90
2023-01-17T20:55:44.353Z,14.95
2023-01-17T20:58:11.090Z,13.68
2023-01-17T21:00:37.869Z,14.40
2023-01-17T21:03:04.608Z,14.65
2023-01-17T21:05:31.360Z,16.00
2023-01-17T21:07:58.381Z,15.98
2023-01-17T21:10:25.392Z,15.07
2023-01-17T21:12:52.217Z,16.08
2023-01-17T21:15:19.423Z,16.00
2023-01-17T21:17:48.100Z,16.77
2023-01-17T21:20:15.031Z,16.75
2023-01-17T21:22:41.751Z,16.20
2023-01-17T21:25:08.805Z,16.02
2023-01-17T21:27:35.851Z,15.07
2023-01-17T21:30:06.605Z,16.65
2023-01-17T21:32:33.871Z,15.82
2023-01-17T21:35:00.532Z,16.13
2023-01-17T21:37:27.295Z,14.88
2023-01-17T21:39:54.008Z,16.23
2023-01-17T21:42:20.802Z,15.85
2023-01-17T21:44:49.355Z,16.00
2023-01-17T21:47:16.066Z,15.52
2023-01-17T21:49:42.821Z,15.68
2023-01-17T21:52:11.812Z,16.92
2023-01-17T21:54:38.481Z,16.38
2023-01-17T21:57:05.169Z,17.48
2023-01-17T21:59:31.964Z,15.45
2023-01-17T22:01:58.857Z,16.33
2023-01-17T22:04:25.609Z,15.10
2023-01-17T22:06:52.627Z,15.85
2023-01-17T22:09:19.301Z,15.35
2023-01-17T22:11:46.019Z,15.90
2023-01-17T22:14:12.739Z,16.15
2023-01-17T22:16:39.420Z,17.02
2023-01-17T22:19:06.148Z,16.73
2023-01-17T22:21:32.866Z,16.52
2023-01-17T22:23:59.932Z,17.92
2023-01-17T22:26:29.289Z,16.80
2023-01-17T22:28:59.077Z,16.58
2023-01-17T22:31:27.751Z,17.45
2023-01-17T22:33:55.434Z,17.67
2023-01-17T22:36:22.423Z,16.40
2023-01-17T22:38:49.096Z,16.27
2023-01-17T22:41:18.642Z,16.08
2023-01-17T22:43:47.363Z,16.23
2023-01-17T22:46:17.368Z,17.42
2023-01-17T22:48:44.495Z,18.50
2023-01-17T22:51:13.974Z,16.67
2023-01-17T22:53:48.956Z,16.02
2023-01-17T22:56:21.468Z,16.02
2023-01-17T22:58:48.730Z,16.23
2023-01-17T23:01:19.072Z,17.50
2023-01-17T23:03:50.355Z,17.52
2023-01-17T23:06:20.195Z,17.70
2023-01-17T23:08:49.799Z,18.33
2023-01-17T23:11:22.713Z,17.38
2023-01-17T23:13:49.354Z,19.13
2023-01-17T23:16:16.124Z,19.23
2023-01-17T23:18:42.890Z,19.58
2023-01-17T23:21:09.543Z,18.63
2023-01-17T23:23:36.214Z,18.60
2023-01-17T23:26:02.914Z,18.77
2023-01-17T23:28:29.588Z,19.58
2023-01-17T23:31:01.583Z,18.13
2023-01-17T23:33:28.543Z,17.35
2023-01-17T23:35:55.231Z,19.02
2023-01-17T23:38:21.869Z,19.17
2023-01-17T23:40:48.633Z,19.15
2023-01-17T23:43:15.255Z,18.55
2023-01-17T23:45:42.200Z,19.17
2023-01-17T23:48:09.484Z,18.27
2023-01-17T23:50:38.324Z,18.50
2023-01-17T23:53:05.589Z,18.23
2023-01-17T23:55:36.001Z,19.80
2023-01-17T23:58:02.859Z,19.48
